Shana Des Slops — FFZR — position and weather

sailwx.info

Track history (hours):
 
Tides and Currents Weather Stations Pressure Air Temp Water Temp Dewpoint Dewpoint Depression Visibility Wind Speed Wind Dir Waves Ship Positions

Shana Des Slops

Last reported at 2015-Jan-28 11:31 UTC. Time now 2015-Jan-28 12:06 UTC.
Position N 43°24' E 004°60'.

Length 47 m; draft 3.2 m.

Type: Tanker. MMSI: 228003800.

Date/timePositionNaut miles runAvg speedWind from/ knotsBaromVisibWave heightAir tempDewpointWater temp
2015-Jan-28 11:31N 43°24' E 004°60'0 0.0
2015-Jan-28 10:31N 43°24' E 004°60'0 0.0
2015-Jan-28 09:31N 43°24' E 004°60'0 0.0
2015-Jan-28 08:31N 43°24' E 004°60'0 0.0
2015-Jan-28 07:31N 43°24' E 004°60'0 0.0
2015-Jan-28 06:31N 43°24' E 004°60'0 0.0
2015-Jan-28 05:31N 43°24' E 004°60'0 0.0
2015-Jan-28 04:31N 43°24' E 004°60'0 0.0
2015-Jan-28 03:31N 43°24' E 004°60'0 0.0
2015-Jan-28 02:25N 43°24' E 004°60'0 0.0
2015-Jan-28 01:32N 43°24' E 004°60'0 0.0
2015-Jan-28 00:32N 43°24' E 004°60'0 0.0
2015-Jan-27 23:32N 43°24' E 004°60'0 0.0
2015-Jan-27 22:32N 43°24' E 004°60'0 0.0
2015-Jan-27 21:32N 43°24' E 004°60'0 0.0
2015-Jan-27 20:32N 43°24' E 004°60'0 0.0
2015-Jan-27 19:32N 43°24' E 004°60'0 0.0
2015-Jan-27 18:32N 43°24' E 004°60'0 0.0
2015-Jan-27 17:32N 43°24' E 004°60'0 0.0
2015-Jan-27 16:32N 43°24' E 004°60'0 0.0
2015-Jan-27 15:32N 43°24' E 004°60'0 0.0
2015-Jan-27 14:32N 43°24' E 004°60'0 0.0
2015-Jan-27 13:32N 43°24' E 004°60'0 0.0
2015-Jan-27 12:32N 43°24' E 004°60'0 0.0
2015-Jan-27 11:32N 43°24' E 004°60'0 0.0
2015-Jan-27 10:32N 43°24' E 004°60'0 0.0
2015-Jan-27 09:32N 43°24' E 004°60'0 0.0
2015-Jan-27 08:32N 43°24' E 004°60'0 0.0
2015-Jan-27 07:32N 43°24' E 004°60'0 0.0
2015-Jan-27 06:32N 43°24' E 004°60'0 0.0
2015-Jan-27 05:32N 43°24' E 004°60'0 0.0
2015-Jan-27 04:32N 43°24' E 004°60'0 0.0
2015-Jan-27 03:32N 43°24' E 004°60'5 4.6
2015-Jan-27 02:34N 43°24' E 004°54'0 0.3
2015-Jan-27 01:24N 43°24' E 004°53'0 0.0
2015-Jan-26 23:30N 43°24' E 004°53'0 0.0
2015-Jan-26 22:30N 43°24' E 004°53'0 0.0
2015-Jan-26 21:30N 43°24' E 004°53'0 0.0
2015-Jan-26 20:13N 43°24' E 004°53'0 0.0
2015-Jan-26 19:25N 43°24' E 004°53'0 0.0
2015-Jan-26 18:31N 43°24' E 004°53'0 0.1
2015-Jan-26 17:34N 43°24' E 004°53'4 3.8
2015-Jan-26 16:34N 43°24' E 004°59'1 1.2
2015-Jan-26 15:33N 43°24' E 004°60'0 0.0
2015-Jan-26 14:33N 43°24' E 004°60'0 0.0
2015-Jan-26 13:30N 43°24' E 004°60'0 0.0
2015-Jan-26 12:33N 43°24' E 004°60'0 0.0
2015-Jan-26 11:33N 43°24' E 004°60'0 0.0
2015-Jan-26 10:33N 43°24' E 004°60'0 0.0
2015-Jan-26 09:33N 43°24' E 004°60'0 0.0
2015-Jan-26 08:33N 43°24' E 004°60'0 0.0
2015-Jan-26 07:33N 43°24' E 004°60'0 0.0
2015-Jan-26 06:33N 43°24' E 004°60'0 0.0
2015-Jan-26 05:33N 43°24' E 004°60'0 0.0
2015-Jan-26 04:33N 43°24' E 004°60'0 0.0
2015-Jan-26 03:33N 43°24' E 004°60'0 0.0
2015-Jan-26 02:33N 43°24' E 004°60'0 0.0
2015-Jan-26 01:33N 43°24' E 004°60'0 0.0
2015-Jan-26 00:33N 43°24' E 004°60'0 0.0
2015-Jan-25 23:33N 43°24' E 004°60'0 0.0
2015-Jan-25 22:33N 43°24' E 004°60'0 0.0
2015-Jan-25 21:33N 43°24' E 004°60'0 0.0
2015-Jan-25 20:33N 43°24' E 004°60'0 0.0
2015-Jan-25 19:33N 43°24' E 004°60'0 0.0
2015-Jan-25 18:33N 43°24' E 004°60'0 0.0
2015-Jan-25 17:33N 43°24' E 004°60'0 0.0
2015-Jan-25 16:33N 43°24' E 004°60'0 0.0
2015-Jan-25 15:33N 43°24' E 004°60'0 0.0
2015-Jan-25 14:33N 43°24' E 004°60'0 0.0
2015-Jan-25 13:33N 43°24' E 004°60'0 0.0
2015-Jan-25 12:33N 43°24' E 004°60'0 0.0
2015-Jan-25 11:33N 43°24' E 004°60'0 0.0
2015-Jan-25 10:33N 43°24' E 004°60'0 0.0
2015-Jan-25 09:33N 43°24' E 004°60'0 0.0
2015-Jan-25 08:33N 43°24' E 004°60'0 0.0
2015-Jan-25 07:33N 43°24' E 004°60'0 0.0
2015-Jan-25 06:33N 43°24' E 004°60'0 0.0
2015-Jan-25 05:33N 43°24' E 004°60'0 0.0
2015-Jan-25 04:33N 43°24' E 004°60'0 0.0
2015-Jan-25 03:33N 43°24' E 004°60'0 0.0
2015-Jan-25 02:33N 43°24' E 004°60'0 0.0
2015-Jan-25 01:30N 43°24' E 004°60'0 0.0
2015-Jan-25 00:31N 43°24' E 004°60'0 0.0
2015-Jan-24 23:31N 43°24' E 004°60'0 0.0
2015-Jan-24 22:31N 43°24' E 004°60'0 0.0
2015-Jan-24 21:28N 43°24' E 004°60'0 0.0
2015-Jan-24 20:31N 43°24' E 004°60'0 0.0
2015-Jan-24 19:31N 43°24' E 004°60'0 0.0
2015-Jan-24 18:31N 43°24' E 004°60'0 0.0
2015-Jan-24 17:31N 43°24' E 004°60'0 0.0
2015-Jan-24 16:31N 43°24' E 004°60'0 0.0
2015-Jan-24 15:31N 43°24' E 004°60'0 0.0
2015-Jan-24 14:31N 43°24' E 004°60'0 0.0
2015-Jan-24 13:31N 43°24' E 004°60'0 0.0
2015-Jan-24 12:31N 43°24' E 004°60'0 0.0
2015-Jan-24 11:31N 43°24' E 004°60'0 0.0
2015-Jan-24 10:31N 43°24' E 004°60'0 0.0
2015-Jan-24 09:28N 43°24' E 004°60'0 0.0
2015-Jan-24 08:31N 43°24' E 004°60'0 0.0
2015-Jan-24 07:31N 43°24' E 004°60'0 0.0
2015-Jan-24 06:31N 43°24' E 004°60'0 0.0
2015-Jan-24 05:31N 43°24' E 004°60'0 0.0
2015-Jan-24 04:31N 43°24' E 004°60'0 0.0
2015-Jan-24 03:31N 43°24' E 004°60'0 0.0
2015-Jan-24 02:31N 43°24' E 004°60'0 0.0
2015-Jan-24 01:31N 43°24' E 004°60'0 0.0
2015-Jan-24 00:31N 43°24' E 004°60'0 0.0
2015-Jan-23 23:31N 43°24' E 004°60'0 0.0
2015-Jan-23 22:31N 43°24' E 004°60'0 0.0
2015-Jan-23 21:28N 43°24' E 004°60'0 0.0
2015-Jan-23 20:31N 43°24' E 004°60'0 0.0
2015-Jan-23 19:31N 43°24' E 004°60'0 0.0
2015-Jan-23 18:31N 43°24' E 004°60'0 0.0
2015-Jan-23 17:31N 43°24' E 004°60'0 0.0
2015-Jan-23 16:31N 43°24' E 004°60'0 0.0
2015-Jan-23 15:31N 43°24' E 004°60'0 0.0
2015-Jan-23 14:31N 43°24' E 004°60'0 0.0
2015-Jan-23 13:31N 43°24' E 004°60'0 0.0
2015-Jan-23 12:31N 43°24' E 004°60'0 0.0
2015-Jan-23 11:31N 43°24' E 004°60'0 0.0
2015-Jan-23 10:31N 43°24' E 004°60'0 0.0
2015-Jan-23 09:31N 43°24' E 004°60'0 0.0
2015-Jan-23 08:31N 43°24' E 004°60'0 0.0
2015-Jan-23 07:31N 43°24' E 004°60'0 0.0
2015-Jan-23 06:31N 43°24' E 004°60'0 0.0
2015-Jan-23 05:31N 43°24' E 004°60'0 0.0
2015-Jan-23 04:31N 43°24' E 004°60'0 0.0
2015-Jan-23 03:28N 43°24' E 004°60'0 0.0
2015-Jan-23 02:31N 43°24' E 004°60'0 0.0
2015-Jan-23 01:31N 43°24' E 004°60'0 0.0
2015-Jan-23 00:31N 43°24' E 004°60'0 0.0
2015-Jan-22 23:31N 43°24' E 004°60'0 0.0
2015-Jan-22 22:31N 43°24' E 004°60'0 0.0
2015-Jan-22 21:31N 43°24' E 004°60'0 0.0
2015-Jan-22 20:31N 43°24' E 004°60'0 0.0
2015-Jan-22 19:31N 43°24' E 004°60'2 1.7
2015-Jan-22 18:33N 43°23' E 004°58'5 5.0
2015-Jan-22 17:32N 43°24' E 004°51'0 0.0
2015-Jan-22 16:29N 43°24' E 004°51'0 0.0
2015-Jan-22 15:29N 43°24' E 004°51'1 1.2
2015-Jan-22 14:30N 43°25' E 004°53'0 0.0
2015-Jan-22 13:33N 43°25' E 004°53'0 0.0
2015-Jan-22 12:33N 43°25' E 004°53'0 0.0
2015-Jan-22 11:30N 43°25' E 004°53'0 0.0
2015-Jan-22 10:33N 43°25' E 004°53'0 0.0
2015-Jan-22 09:30N 43°25' E 004°53'0 0.0
2015-Jan-22 08:33N 43°25' E 004°53'0 0.0
2015-Jan-22 07:26N 43°25' E 004°53'5 5.5
2015-Jan-22 06:33N 43°24' E 004°59'1 1.0
2015-Jan-22 05:32N 43°24' E 004°60'0 0.0
2015-Jan-22 04:32N 43°24' E 004°60'0 0.0
2015-Jan-22 03:32N 43°24' E 004°60'0 0.0
2015-Jan-22 02:32N 43°24' E 004°60'0 0.0
2015-Jan-22 01:32N 43°24' E 004°60'0 0.0
2015-Jan-22 00:32N 43°24' E 004°60'0 0.0
2015-Jan-21 23:32N 43°24' E 004°60'0 0.0
2015-Jan-21 22:50N 43°24' E 004°60'0 0.0
2015-Jan-21 22:44N 43°24' E 004°60'0 0.0
2015-Jan-21 22:32N 43°24' E 004°60'0 0.0
2015-Jan-21 21:32N 43°24' E 004°60'0 0.0
2015-Jan-21 20:32N 43°24' E 004°60'0 0.0
2015-Jan-21 19:32N 43°24' E 004°60'0 0.0
2015-Jan-21 18:32N 43°24' E 004°60'0 0.0
2015-Jan-21 17:32N 43°24' E 004°60'0 0.0
2015-Jan-21 16:32N 43°24' E 004°60'0 0.0
2015-Jan-21 15:32N 43°24' E 004°60'0 0.0
2015-Jan-21 14:32N 43°24' E 004°60'0 0.0
2015-Jan-21 13:32N 43°24' E 004°60'0 0.0
2015-Jan-21 12:32N 43°24' E 004°60'0 0.0
2015-Jan-21 11:32N 43°24' E 004°60'0 0.0
2015-Jan-21 10:32N 43°24' E 004°60'0 0.0
2015-Jan-21 09:32N 43°24' E 004°60'0 0.0
2015-Jan-21 08:32N 43°24' E 004°60'0 0.0
2015-Jan-21 07:32N 43°24' E 004°60'0 0.0
2015-Jan-21 06:32N 43°24' E 004°60'0 0.0
2015-Jan-21 05:32N 43°24' E 004°60'0 0.0
2015-Jan-21 04:32N 43°24' E 004°60'0 0.0
2015-Jan-21 03:33N 43°24' E 004°60'0 0.0
2015-Jan-21 02:33N 43°24' E 004°60'0 0.0
2015-Jan-21 01:33N 43°24' E 004°60'0 0.0
2015-Jan-21 00:33N 43°24' E 004°60'0 0.0
2015-Jan-20 23:33N 43°24' E 004°60'0 0.0
2015-Jan-20 22:33N 43°24' E 004°60'0 0.0
2015-Jan-20 21:33N 43°24' E 004°60'0 0.0
2015-Jan-20 20:33N 43°24' E 004°60'0 0.0
2015-Jan-20 19:33N 43°24' E 004°60'0 0.0
2015-Jan-20 18:33N 43°24' E 004°60'0 0.2
2015-Jan-20 17:31N 43°24' E 004°60'0 0.0
2015-Jan-20 16:31N 43°24' E 004°60'0 0.2
2015-Jan-20 15:33N 43°24' E 004°60'0 0.0
2015-Jan-20 14:33N 43°24' E 004°60'0 0.0
2015-Jan-20 13:33N 43°24' E 004°60'0 0.0
2015-Jan-20 12:33N 43°24' E 004°60'0 0.0
2015-Jan-20 11:33N 43°24' E 004°60'0 0.0
2015-Jan-20 10:32N 43°24' E 004°60'0 0.0
2015-Jan-20 09:32N 43°24' E 004°60'0 0.0
2015-Jan-20 08:29N 43°24' E 004°60'0 0.0
2015-Jan-20 07:32N 43°24' E 004°60'0 0.0
2015-Jan-20 06:32N 43°24' E 004°60'0 0.0
2015-Jan-20 05:33N 43°24' E 004°60'0 0.3
2015-Jan-20 04:27N 43°24' E 004°60'0 0.0
2015-Jan-20 03:24N 43°24' E 004°60'0 0.0
2015-Jan-20 02:30N 43°24' E 004°60'0 0.0
2015-Jan-20 01:33N 43°24' E 004°60'0 0.0
2015-Jan-20 00:33N 43°24' E 004°60'0 0.0
2015-Jan-19 23:33N 43°24' E 004°60'0 0.0
2015-Jan-19 22:33N 43°24' E 004°60'0 0.0
2015-Jan-19 21:33N 43°24' E 004°60'0 0.2
2015-Jan-19 20:33N 43°24' E 004°60'0 0.0
2015-Jan-19 19:32N 43°24' E 004°60'0 0.0
2015-Jan-19 18:32N 43°24' E 004°60'0 0.0
2015-Jan-19 17:32N 43°24' E 004°60'0 0.2
2015-Jan-19 16:32N 43°24' E 004°60'0 0.0
2015-Jan-19 15:32N 43°24' E 004°60'0 0.0
2015-Jan-19 14:32N 43°24' E 004°60'0 0.0
2015-Jan-19 13:32N 43°24' E 004°60'0 0.0
2015-Jan-19 12:32N 43°24' E 004°60'0 0.0
2015-Jan-19 11:32N 43°24' E 004°60'0 0.0
2015-Jan-19 10:32N 43°24' E 004°60'0 0.0
2015-Jan-19 09:32N 43°24' E 004°60'0 0.0
2015-Jan-19 08:32N 43°24' E 004°60'0 0.0
2015-Jan-19 07:32N 43°24' E 004°60'0 0.0
2015-Jan-19 06:32N 43°24' E 004°60'0 0.0
2015-Jan-19 05:32N 43°24' E 004°60'0 0.0
2015-Jan-19 04:32N 43°24' E 004°60'0 0.0
2015-Jan-19 03:32N 43°24' E 004°60'0 0.0
2015-Jan-19 02:32N 43°24' E 004°60'0 0.0
2015-Jan-19 01:32N 43°24' E 004°60'0 0.0
2015-Jan-19 00:32N 43°24' E 004°60'0 0.0
2015-Jan-18 23:32N 43°24' E 004°60'0 0.0
2015-Jan-18 22:32N 43°24' E 004°60'0 0.0
2015-Jan-18 21:32N 43°24' E 004°60'0 0.0
2015-Jan-18 20:32N 43°24' E 004°60'0 0.0
2015-Jan-18 19:32N 43°24' E 004°60'0 0.0
2015-Jan-18 18:32N 43°24' E 004°60'0 0.0
2015-Jan-18 17:32N 43°24' E 004°60'0 0.0
2015-Jan-18 16:32N 43°24' E 004°60'0 0.0
2015-Jan-18 15:32N 43°24' E 004°60'0 0.0
2015-Jan-18 14:32N 43°24' E 004°60'0 0.0
2015-Jan-18 13:32N 43°24' E 004°60'0 0.0
2015-Jan-18 12:32N 43°24' E 004°60'0 0.0
2015-Jan-18 11:32N 43°24' E 004°60'  
Track history (hours):
 
Tides and Currents Weather Stations Pressure Air Temp Water Temp Dewpoint Dewpoint Depression Visibility Wind Speed Wind Dir Waves Ship Positions

Shana Des Slops

Last reported at 2015-Jan-28 11:31 UTC. Time now 2015-Jan-28 12:06 UTC.
Position N 43°24' E 004°60'.

Length 47 m; draft 3.2 m.

Type: Tanker. MMSI: 228003800.

Date/timePositionNaut miles runAvg speedWind from/ knotsBaromVisibWave heightAir tempDewpointWater temp
2015-Jan-28 11:31N 43°24' E 004°60'0 0.0
2015-Jan-28 10:31N 43°24' E 004°60'0 0.0
2015-Jan-28 09:31N 43°24' E 004°60'0 0.0
2015-Jan-28 08:31N 43°24' E 004°60'0 0.0
2015-Jan-28 07:31N 43°24' E 004°60'0 0.0
2015-Jan-28 06:31N 43°24' E 004°60'0 0.0
2015-Jan-28 05:31N 43°24' E 004°60'0 0.0
2015-Jan-28 04:31N 43°24' E 004°60'0 0.0
2015-Jan-28 03:31N 43°24' E 004°60'0 0.0
2015-Jan-28 02:25N 43°24' E 004°60'0 0.0
2015-Jan-28 01:32N 43°24' E 004°60'0 0.0
2015-Jan-28 00:32N 43°24' E 004°60'0 0.0
2015-Jan-27 23:32N 43°24' E 004°60'0 0.0
2015-Jan-27 22:32N 43°24' E 004°60'0 0.0
2015-Jan-27 21:32N 43°24' E 004°60'0 0.0
2015-Jan-27 20:32N 43°24' E 004°60'0 0.0
2015-Jan-27 19:32N 43°24' E 004°60'0 0.0
2015-Jan-27 18:32N 43°24' E 004°60'0 0.0
2015-Jan-27 17:32N 43°24' E 004°60'0 0.0
2015-Jan-27 16:32N 43°24' E 004°60'0 0.0
2015-Jan-27 15:32N 43°24' E 004°60'0 0.0
2015-Jan-27 14:32N 43°24' E 004°60'0 0.0
2015-Jan-27 13:32N 43°24' E 004°60'0 0.0
2015-Jan-27 12:32N 43°24' E 004°60'0 0.0
2015-Jan-27 11:32N 43°24' E 004°60'0 0.0
2015-Jan-27 10:32N 43°24' E 004°60'0 0.0
2015-Jan-27 09:32N 43°24' E 004°60'0 0.0
2015-Jan-27 08:32N 43°24' E 004°60'0 0.0
2015-Jan-27 07:32N 43°24' E 004°60'0 0.0
2015-Jan-27 06:32N 43°24' E 004°60'0 0.0
2015-Jan-27 05:32N 43°24' E 004°60'0 0.0
2015-Jan-27 04:32N 43°24' E 004°60'0 0.0
2015-Jan-27 03:32N 43°24' E 004°60'5 4.6
2015-Jan-27 02:34N 43°24' E 004°54'0 0.3
2015-Jan-27 01:24N 43°24' E 004°53'0 0.0
2015-Jan-26 23:30N 43°24' E 004°53'0 0.0
2015-Jan-26 22:30N 43°24' E 004°53'0 0.0
2015-Jan-26 21:30N 43°24' E 004°53'0 0.0
2015-Jan-26 20:13N 43°24' E 004°53'0 0.0
2015-Jan-26 19:25N 43°24' E 004°53'0 0.0
2015-Jan-26 18:31N 43°24' E 004°53'0 0.1
2015-Jan-26 17:34N 43°24' E 004°53'4 3.8
2015-Jan-26 16:34N 43°24' E 004°59'1 1.2
2015-Jan-26 15:33N 43°24' E 004°60'0 0.0
2015-Jan-26 14:33N 43°24' E 004°60'0 0.0
2015-Jan-26 13:30N 43°24' E 004°60'0 0.0
2015-Jan-26 12:33N 43°24' E 004°60'0 0.0
2015-Jan-26 11:33N 43°24' E 004°60'0 0.0
2015-Jan-26 10:33N 43°24' E 004°60'0 0.0
2015-Jan-26 09:33N 43°24' E 004°60'0 0.0
2015-Jan-26 08:33N 43°24' E 004°60'0 0.0
2015-Jan-26 07:33N 43°24' E 004°60'0 0.0
2015-Jan-26 06:33N 43°24' E 004°60'0 0.0
2015-Jan-26 05:33N 43°24' E 004°60'0 0.0
2015-Jan-26 04:33N 43°24' E 004°60'0 0.0
2015-Jan-26 03:33N 43°24' E 004°60'0 0.0
2015-Jan-26 02:33N 43°24' E 004°60'0 0.0
2015-Jan-26 01:33N 43°24' E 004°60'0 0.0
2015-Jan-26 00:33N 43°24' E 004°60'0 0.0
2015-Jan-25 23:33N 43°24' E 004°60'0 0.0
2015-Jan-25 22:33N 43°24' E 004°60'0 0.0
2015-Jan-25 21:33N 43°24' E 004°60'0 0.0
2015-Jan-25 20:33N 43°24' E 004°60'0 0.0
2015-Jan-25 19:33N 43°24' E 004°60'0 0.0
2015-Jan-25 18:33N 43°24' E 004°60'0 0.0
2015-Jan-25 17:33N 43°24' E 004°60'0 0.0
2015-Jan-25 16:33N 43°24' E 004°60'0 0.0
2015-Jan-25 15:33N 43°24' E 004°60'0 0.0
2015-Jan-25 14:33N 43°24' E 004°60'0 0.0
2015-Jan-25 13:33N 43°24' E 004°60'0 0.0
2015-Jan-25 12:33N 43°24' E 004°60'0 0.0
2015-Jan-25 11:33N 43°24' E 004°60'0 0.0
2015-Jan-25 10:33N 43°24' E 004°60'0 0.0
2015-Jan-25 09:33N 43°24' E 004°60'0 0.0
2015-Jan-25 08:33N 43°24' E 004°60'0 0.0
2015-Jan-25 07:33N 43°24' E 004°60'0 0.0
2015-Jan-25 06:33N 43°24' E 004°60'0 0.0
2015-Jan-25 05:33N 43°24' E 004°60'0 0.0
2015-Jan-25 04:33N 43°24' E 004°60'0 0.0
2015-Jan-25 03:33N 43°24' E 004°60'0 0.0
2015-Jan-25 02:33N 43°24' E 004°60'0 0.0
2015-Jan-25 01:30N 43°24' E 004°60'0 0.0
2015-Jan-25 00:31N 43°24' E 004°60'0 0.0
2015-Jan-24 23:31N 43°24' E 004°60'0 0.0
2015-Jan-24 22:31N 43°24' E 004°60'0 0.0
2015-Jan-24 21:28N 43°24' E 004°60'0 0.0
2015-Jan-24 20:31N 43°24' E 004°60'0 0.0
2015-Jan-24 19:31N 43°24' E 004°60'0 0.0
2015-Jan-24 18:31N 43°24' E 004°60'0 0.0
2015-Jan-24 17:31N 43°24' E 004°60'0 0.0
2015-Jan-24 16:31N 43°24' E 004°60'0 0.0
2015-Jan-24 15:31N 43°24' E 004°60'0 0.0
2015-Jan-24 14:31N 43°24' E 004°60'0 0.0
2015-Jan-24 13:31N 43°24' E 004°60'0 0.0
2015-Jan-24 12:31N 43°24' E 004°60'0 0.0
2015-Jan-24 11:31N 43°24' E 004°60'0 0.0
2015-Jan-24 10:31N 43°24' E 004°60'0 0.0
2015-Jan-24 09:28N 43°24' E 004°60'0 0.0
2015-Jan-24 08:31N 43°24' E 004°60'0 0.0
2015-Jan-24 07:31N 43°24' E 004°60'0 0.0
2015-Jan-24 06:31N 43°24' E 004°60'0 0.0
2015-Jan-24 05:31N 43°24' E 004°60'0 0.0
2015-Jan-24 04:31N 43°24' E 004°60'0 0.0
2015-Jan-24 03:31N 43°24' E 004°60'0 0.0
2015-Jan-24 02:31N 43°24' E 004°60'0 0.0
2015-Jan-24 01:31N 43°24' E 004°60'0 0.0
2015-Jan-24 00:31N 43°24' E 004°60'0 0.0
2015-Jan-23 23:31N 43°24' E 004°60'0 0.0
2015-Jan-23 22:31N 43°24' E 004°60'0 0.0
2015-Jan-23 21:28N 43°24' E 004°60'0 0.0
2015-Jan-23 20:31N 43°24' E 004°60'0 0.0
2015-Jan-23 19:31N 43°24' E 004°60'0 0.0
2015-Jan-23 18:31N 43°24' E 004°60'0 0.0
2015-Jan-23 17:31N 43°24' E 004°60'0 0.0
2015-Jan-23 16:31N 43°24' E 004°60'0 0.0
2015-Jan-23 15:31N 43°24' E 004°60'0 0.0
2015-Jan-23 14:31N 43°24' E 004°60'0 0.0
2015-Jan-23 13:31N 43°24' E 004°60'0 0.0
2015-Jan-23 12:31N 43°24' E 004°60'0 0.0
2015-Jan-23 11:31N 43°24' E 004°60'0 0.0
2015-Jan-23 10:31N 43°24' E 004°60'0 0.0
2015-Jan-23 09:31N 43°24' E 004°60'0 0.0
2015-Jan-23 08:31N 43°24' E 004°60'0 0.0
2015-Jan-23 07:31N 43°24' E 004°60'0 0.0
2015-Jan-23 06:31N 43°24' E 004°60'0 0.0
2015-Jan-23 05:31N 43°24' E 004°60'0 0.0
2015-Jan-23 04:31N 43°24' E 004°60'0 0.0
2015-Jan-23 03:28N 43°24' E 004°60'0 0.0
2015-Jan-23 02:31N 43°24' E 004°60'0 0.0
2015-Jan-23 01:31N 43°24' E 004°60'0 0.0
2015-Jan-23 00:31N 43°24' E 004°60'0 0.0
2015-Jan-22 23:31N 43°24' E 004°60'0 0.0
2015-Jan-22 22:31N 43°24' E 004°60'0 0.0
2015-Jan-22 21:31N 43°24' E 004°60'0 0.0
2015-Jan-22 20:31N 43°24' E 004°60'0 0.0
2015-Jan-22 19:31N 43°24' E 004°60'2 1.7
2015-Jan-22 18:33N 43°23' E 004°58'5 5.0
2015-Jan-22 17:32N 43°24' E 004°51'0 0.0
2015-Jan-22 16:29N 43°24' E 004°51'0 0.0
2015-Jan-22 15:29N 43°24' E 004°51'1 1.2
2015-Jan-22 14:30N 43°25' E 004°53'0 0.0
2015-Jan-22 13:33N 43°25' E 004°53'0 0.0
2015-Jan-22 12:33N 43°25' E 004°53'0 0.0
2015-Jan-22 11:30N 43°25' E 004°53'0 0.0
2015-Jan-22 10:33N 43°25' E 004°53'0 0.0
2015-Jan-22 09:30N 43°25' E 004°53'0 0.0
2015-Jan-22 08:33N 43°25' E 004°53'0 0.0
2015-Jan-22 07:26N 43°25' E 004°53'5 5.5
2015-Jan-22 06:33N 43°24' E 004°59'1 1.0
2015-Jan-22 05:32N 43°24' E 004°60'0 0.0
2015-Jan-22 04:32N 43°24' E 004°60'0 0.0
2015-Jan-22 03:32N 43°24' E 004°60'0 0.0
2015-Jan-22 02:32N 43°24' E 004°60'0 0.0
2015-Jan-22 01:32N 43°24' E 004°60'0 0.0
2015-Jan-22 00:32N 43°24' E 004°60'0 0.0
2015-Jan-21 23:32N 43°24' E 004°60'0 0.0
2015-Jan-21 22:50N 43°24' E 004°60'0 0.0
2015-Jan-21 22:44N 43°24' E 004°60'0 0.0
2015-Jan-21 22:32N 43°24' E 004°60'0 0.0
2015-Jan-21 21:32N 43°24' E 004°60'0 0.0
2015-Jan-21 20:32N 43°24' E 004°60'0 0.0
2015-Jan-21 19:32N 43°24' E 004°60'0 0.0
2015-Jan-21 18:32N 43°24' E 004°60'0 0.0
2015-Jan-21 17:32N 43°24' E 004°60'0 0.0
2015-Jan-21 16:32N 43°24' E 004°60'0 0.0
2015-Jan-21 15:32N 43°24' E 004°60'0 0.0
2015-Jan-21 14:32N 43°24' E 004°60'0 0.0
2015-Jan-21 13:32N 43°24' E 004°60'0 0.0
2015-Jan-21 12:32N 43°24' E 004°60'0 0.0
2015-Jan-21 11:32N 43°24' E 004°60'0 0.0
2015-Jan-21 10:32N 43°24' E 004°60'0 0.0
2015-Jan-21 09:32N 43°24' E 004°60'0 0.0
2015-Jan-21 08:32N 43°24' E 004°60'0 0.0
2015-Jan-21 07:32N 43°24' E 004°60'0 0.0
2015-Jan-21 06:32N 43°24' E 004°60'0 0.0
2015-Jan-21 05:32N 43°24' E 004°60'0 0.0
2015-Jan-21 04:32N 43°24' E 004°60'0 0.0
2015-Jan-21 03:33N 43°24' E 004°60'0 0.0
2015-Jan-21 02:33N 43°24' E 004°60'0 0.0
2015-Jan-21 01:33N 43°24' E 004°60'0 0.0
2015-Jan-21 00:33N 43°24' E 004°60'0 0.0
2015-Jan-20 23:33N 43°24' E 004°60'0 0.0
2015-Jan-20 22:33N 43°24' E 004°60'0 0.0
2015-Jan-20 21:33N 43°24' E 004°60'0 0.0
2015-Jan-20 20:33N 43°24' E 004°60'0 0.0
2015-Jan-20 19:33N 43°24' E 004°60'0 0.0
2015-Jan-20 18:33N 43°24' E 004°60'0 0.2
2015-Jan-20 17:31N 43°24' E 004°60'0 0.0
2015-Jan-20 16:31N 43°24' E 004°60'0 0.2
2015-Jan-20 15:33N 43°24' E 004°60'0 0.0
2015-Jan-20 14:33N 43°24' E 004°60'0 0.0
2015-Jan-20 13:33N 43°24' E 004°60'0 0.0
2015-Jan-20 12:33N 43°24' E 004°60'0 0.0
2015-Jan-20 11:33N 43°24' E 004°60'0 0.0
2015-Jan-20 10:32N 43°24' E 004°60'0 0.0
2015-Jan-20 09:32N 43°24' E 004°60'0 0.0
2015-Jan-20 08:29N 43°24' E 004°60'0 0.0
2015-Jan-20 07:32N 43°24' E 004°60'0 0.0
2015-Jan-20 06:32N 43°24' E 004°60'0 0.0
2015-Jan-20 05:33N 43°24' E 004°60'0 0.3
2015-Jan-20 04:27N 43°24' E 004°60'0 0.0
2015-Jan-20 03:24N 43°24' E 004°60'0 0.0
2015-Jan-20 02:30N 43°24' E 004°60'0 0.0
2015-Jan-20 01:33N 43°24' E 004°60'0 0.0
2015-Jan-20 00:33N 43°24' E 004°60'0 0.0
2015-Jan-19 23:33N 43°24' E 004°60'0 0.0
2015-Jan-19 22:33N 43°24' E 004°60'0 0.0
2015-Jan-19 21:33N 43°24' E 004°60'0 0.2
2015-Jan-19 20:33N 43°24' E 004°60'0 0.0
2015-Jan-19 19:32N 43°24' E 004°60'0 0.0
2015-Jan-19 18:32N 43°24' E 004°60'0 0.0
2015-Jan-19 17:32N 43°24' E 004°60'0 0.2
2015-Jan-19 16:32N 43°24' E 004°60'0 0.0
2015-Jan-19 15:32N 43°24' E 004°60'0 0.0
2015-Jan-19 14:32N 43°24' E 004°60'0 0.0
2015-Jan-19 13:32N 43°24' E 004°60'0 0.0
2015-Jan-19 12:32N 43°24' E 004°60'0 0.0
2015-Jan-19 11:32N 43°24' E 004°60'0 0.0
2015-Jan-19 10:32N 43°24' E 004°60'0 0.0
2015-Jan-19 09:32N 43°24' E 004°60'0 0.0
2015-Jan-19 08:32N 43°24' E 004°60'0 0.0
2015-Jan-19 07:32N 43°24' E 004°60'0 0.0
2015-Jan-19 06:32N 43°24' E 004°60'0 0.0
2015-Jan-19 05:32N 43°24' E 004°60'0 0.0
2015-Jan-19 04:32N 43°24' E 004°60'0 0.0
2015-Jan-19 03:32N 43°24' E 004°60'0 0.0
2015-Jan-19 02:32N 43°24' E 004°60'0 0.0
2015-Jan-19 01:32N 43°24' E 004°60'0 0.0
2015-Jan-19 00:32N 43°24' E 004°60'0 0.0
2015-Jan-18 23:32N 43°24' E 004°60'0 0.0
2015-Jan-18 22:32N 43°24' E 004°60'0 0.0
2015-Jan-18 21:32N 43°24' E 004°60'0 0.0
2015-Jan-18 20:32N 43°24' E 004°60'0 0.0
2015-Jan-18 19:32N 43°24' E 004°60'0 0.0
2015-Jan-18 18:32N 43°24' E 004°60'0 0.0
2015-Jan-18 17:32N 43°24' E 004°60'0 0.0
2015-Jan-18 16:32N 43°24' E 004°60'0 0.0
2015-Jan-18 15:32N 43°24' E 004°60'0 0.0
2015-Jan-18 14:32N 43°24' E 004°60'0 0.0
2015-Jan-18 13:32N 43°24' E 004°60'0 0.0
2015-Jan-18 12:32N 43°24' E 004°60'0 0.0
2015-Jan-18 11:32N 43°24' E 004°60'  

Dump ship's entire track history